Latest Weather Observations for Moruya Airport

IDN60901

Issued at 7:51 pm EDT Saturday 16 December 2017 (issued every 10 minutes, with the page automatically refreshed every 10 minutes)

About weather observations | Map of Canberra area stations | Latest observations for Canberra area | Other Formats
Station Details ID: 069148 Name: MORUYA AIRPORT AWS Lat: -35.90 Lon: 150.14 Height: 4.0 m
Data from the previous 72 hours. | See also: Recent months at Moruya Airport
Date/Time
EDT
Temp
°C
App
Temp
°C
Dew
Point
°C
Rel
Hum
%
Delta-T
°C
Wind Press
QNH
hPa
Press
MSL
hPa
Rain since
9am
mm
Dir  Spd
km/h
Gust
km/h
Spd
kts
Gust
kts
16/07:35pm 20.4 21.2 19.1 92 0.8 S 13 20 7 11 1015.2 1015.1 7.8
16/07:30pm 20.5 21.3 19.0 91 0.9 SSW 13 20 7 11 1015.6 1015.5 6.8
16/07:27pm 20.6 21.4 19.1 91 0.9 SSW 13 20 7 11 1015.6 1015.5 5.8
16/07:00pm 20.7 22.2 19.0 90 1.1 S 9 15 5 8 1014.8 1014.7 5.0
16/06:56pm 20.8 22.1 19.3 91 0.9 SSE 11 22 6 12 1014.8 1014.7 5.0
16/06:36pm 20.5 21.3 19.0 91 0.9 S 13 22 7 12 1014.3 1014.2 4.4
16/06:32pm 20.4 21.1 18.9 91 0.9 SSW 13 22 7 12 1014.7 1014.6 4.0
16/06:30pm 20.4 21.2 19.1 92 0.8 SSW 13 22 7 12 1014.8 1014.7 4.0
16/06:29pm 20.5 21.4 19.2 92 0.8 SSW 13 22 7 12 1014.8 1014.7 4.0
16/06:12pm 20.5 21.4 19.2 92 0.8 SSE 13 22 7 12 1013.7 1013.6 3.0
16/06:08pm 20.6 21.5 19.3 92 0.8 SSE 13 17 7 9 1013.8 1013.7 2.6
16/06:00pm 20.5 22.0 19.0 91 0.9 ESE 9 17 5 9 1013.8 1013.7 2.6
16/05:38pm 20.9 21.0 19.2 90 1.1 E 17 26 9 14 1013.1 1013.0 1.2
16/05:35pm 21.1 22.0 19.2 89 1.2 E 13 20 7 11 1013.3 1013.2 1.2
16/05:30pm 21.1 22.6 19.0 88 1.3 SE 9 13 5 7 1013.6 1013.5 1.0
16/05:12pm 21.0 21.7 18.8 87 1.4 SW 13 20 7 11 1014.9 1014.8 0.6
16/05:00pm 21.3 22.1 19.0 87 1.4 S 13 20 7 11 1013.6 1013.5 0.6
16/04:30pm 21.4 22.3 19.3 88 1.3 ESE 13 20 7 11 1012.5 1012.4 0.4
16/04:00pm 20.9 22.1 19.0 89 1.2 WSW 11 19 6 10 1013.6 1013.5 0.4
16/03:50pm 21.0 21.5 19.3 90 1.1 SW 15 24 8 13 1013.2 1013.1 0.4
16/03:33pm 21.2 20.7 19.1 88 1.3 SSE 20 30 11 16 1012.0 1011.9 0.4
16/03:30pm 21.7 21.5 19.3 86 1.5 SSE 19 26 10 14 1012.6 1012.5 0.2
16/03:00pm 22.0 22.5 19.2 84 1.8 SSE 15 22 8 12 1013.5 1013.4 0.0
16/02:30pm 23.7 23.4 19.2 76 2.9 SE 19 28 10 15 1012.4 1012.3 0.0
16/02:29pm 23.4 22.8 18.5 74 3.1 SE 19 28 10 15 1012.5 1012.4 0.0
16/02:09pm 22.6 21.5 18.6 78 2.5 SE 22 35 12 19 1012.5 1012.4 0.0
16/02:00pm 23.2 22.0 19.2 78 2.5 SSE 24 35 13 19 1012.8 1012.7 0.0
16/01:30pm 23.6 22.6 18.9 75 3.0 SE 22 28 12 15 1012.5 1012.4 0.0
16/01:00pm 23.2 22.7 19.2 78 2.5 SE 20 28 11 15 1012.5 1012.4 0.0
16/12:30pm 22.8 22.2 18.8 78 2.5 SSE 20 26 11 14 1012.5 1012.4 0.0
16/12:22pm 22.8 22.4 18.8 78 2.5 SE 19 24 10 13 1012.6 1012.5 0.0
16/12:00pm 22.2 22.0 18.6 80 2.3 SSE 17 20 9 11 1012.8 1012.7 0.0
16/11:30am 22.6 23.2 19.4 82 2.0 ESE 15 20 8 11 1012.9 1012.8 0.0
16/11:00am 21.7 22.5 19.1 85 1.6 SE 13 17 7 9 1012.9 1012.8 0.0
16/10:54am 21.7 22.7 19.4 87 1.5 ESE 13 17 7 9 1012.9 1012.8 0.0
16/10:30am 21.2 22.0 19.1 88 1.3 ESE 13 17 7 9 1012.8 1012.7 0.0
16/10:00am 21.6 23.5 19.7 89 1.2 ESE 9 15 5 8 1012.7 1012.6 0.0
16/09:30am 21.3 22.5 19.0 87 1.5 E 11 15 6 8 1012.6 1012.5 0.0
16/09:25am 21.6 22.5 19.3 87 1.5 E 13 15 7 8 1012.6 1012.5 0.0
16/09:23am 21.8 22.8 19.5 87 1.5 E 13 15 7 8 1012.6 1012.5 0.0
16/09:00am 21.9 23.2 19.3 85 1.7 E 11 13 6 7 1012.6 1012.5 0.8
16/08:30am 22.0 23.9 19.0 83 1.9 ESE 7 13 4 7 1012.4 1012.3 0.8
16/08:08am 21.3 23.4 18.9 86 1.5 S 6 9 3 5 1012.3 1012.2 0.8
16/08:00am 21.0 22.9 18.9 88 1.3 S 7 9 4 5 1012.4 1012.3 0.8
16/07:30am 20.7 24.2 19.5 93 0.8 CALM 0 6 0 3 1012.0 1011.9 0.8
16/07:00am 20.0 22.0 19.2 95 0.5 N 7 13 4 7 1011.7 1011.6 0.8
16/06:59am 19.8 21.3 19.0 95 0.5 N 9 13 5 7 1011.7 1011.6 0.8
16/06:30am 19.8 21.7 19.0 95 0.5 N 7 11 4 6 1011.3 1011.2 0.8
16/06:00am 19.7 21.1 18.7 94 0.6 N 9 11 5 6 1011.0 1010.9 0.8
16/05:30am 19.9 23.0 18.7 93 0.7 CALM 0 0 0 0 1010.8 1010.7 0.8
16/05:00am 20.1 23.3 18.8 92 0.8 CALM 0 6 0 3 1010.6 1010.5 0.8
16/04:45am 20.1 22.8 18.6 91 0.9 WSW 2 7 1 4 1010.5 1010.4 0.8
16/04:30am 20.2 23.3 18.7 91 0.9 CALM 0 0 0 0 1010.3 1010.2 0.8
16/04:00am 20.3 23.4 18.6 90 1.1 CALM 0 0 0 0 1010.3 1010.2 0.8
16/03:30am 20.3 23.4 18.6 90 1.1 CALM 0 6 0 3 1010.4 1010.3 0.8
16/03:00am 20.3 23.4 18.6 90 1.1 CALM 0 6 0 3 1010.4 1010.3 0.8
16/02:30am 20.4 23.5 18.7 90 1.1 CALM 0 0 0 0 1010.4 1010.3 0.8
16/02:00am 20.3 23.5 18.8 91 0.9 CALM 0 6 0 3 1010.4 1010.3 0.8
16/01:30am 20.3 21.5 19.0 92 0.8 SSW 11 15 6 8 1009.9 1009.8 0.8
16/01:00am 20.6 21.8 19.1 91 0.9 S 11 15 6 8 1010.2 1010.1 0.8
16/12:30am 20.6 22.7 18.9 90 1.1 WSW 6 7 3 4 1010.9 1010.8 0.8
16/12:00am 20.7 22.2 19.0 90 1.1 SW 9 11 5 6 1011.1 1011.0 0.8
 
Date/Time
EDT
Temp
°C
App
Temp
°C
Dew
Point
°C
Rel
Hum
%
Delta-T
°C
Wind Press
QNH
hPa
Press
MSL
hPa
Rain since
9am
mm
Dir  Spd
km/h
Gust
km/h
Spd
kts
Gust
kts
15/11:30pm 20.8 22.8 19.1 90 1.1 SW 7 11 4 6 1011.3 1011.2 0.8
15/11:00pm 20.8 24.0 18.9 89 1.2 CALM 0 6 0 3 1011.5 1011.4 0.8
15/10:30pm 21.0 23.9 19.1 89 1.2 W 2 7 1 4 1011.5 1011.4 0.8
15/10:00pm 21.2 24.5 19.1 88 1.3 CALM 0 0 0 0 1011.6 1011.5 0.8
15/09:30pm 21.3 24.6 19.2 88 1.3 CALM 0 0 0 0 1011.6 1011.5 0.8
15/09:00pm 21.3 24.3 19.2 88 1.3 ESE 2 6 1 3 1011.4 1011.3 0.8
15/08:30pm 21.3 23.4 19.0 87 1.5 ESE 6 9 3 5 1011.2 1011.1 0.8
15/08:00pm 21.3 24.6 19.0 87 1.5 CALM 0 0 0 0 1011.2 1011.1 0.8
15/07:30pm 21.3 23.4 19.0 87 1.5 E 6 7 3 4 1010.8 1010.7 0.8
15/07:00pm 21.3 23.2 18.9 86 1.5 E 7 9 4 5 1010.6 1010.5 0.8
15/06:30pm 21.5 23.0 18.9 85 1.6 E 9 11 5 6 1010.5 1010.4 0.8
15/06:08pm 21.6 22.7 18.8 84 1.8 E 11 13 6 7 1010.3 1010.2 0.8
15/06:00pm 21.8 22.9 18.8 83 1.9 E 11 13 6 7 1010.3 1010.2 0.8
15/05:30pm 22.0 22.6 18.6 81 2.1 ENE 13 17 7 9 1010.3 1010.2 0.8
15/05:00pm 22.2 22.0 18.6 80 2.3 ENE 17 20 9 11 1010.3 1010.2 0.8
15/04:30pm 22.9 23.1 19.3 80 2.3 ENE 17 20 9 11 1010.4 1010.3 0.8
15/04:00pm 22.1 21.7 18.1 78 2.5 ENE 17 20 9 11 1010.7 1010.6 0.8
15/03:30pm 22.4 22.1 18.2 77 2.6 ENE 17 20 9 11 1011.0 1010.9 0.8
15/03:00pm 22.0 21.7 18.2 79 2.4 ENE 17 20 9 11 1011.5 1011.4 0.8
15/02:30pm 21.5 20.6 17.7 79 2.3 ENE 19 22 10 12 1011.9 1011.8 0.8
15/02:00pm 21.7 20.9 18.1 80 2.2 ENE 19 22 10 12 1012.4 1012.3 0.8
15/01:30pm 21.0 20.5 17.8 82 2.0 ENE 17 19 9 10 1012.9 1012.8 0.8
15/01:00pm 20.8 20.6 17.6 82 2.0 NE 15 19 8 10 1013.3 1013.2 0.8
15/12:36pm 19.9 19.5 17.1 84 1.7 NE 15 17 8 9 1013.6 1013.5 0.8
15/12:30pm 19.7 19.2 16.9 84 1.7 NE 15 17 8 9 1013.6 1013.5 0.8
15/12:16pm 20.0 20.4 17.2 84 1.7 NE 11 15 6 8 1013.8 1013.7 0.8
15/12:00pm 20.1 21.0 17.5 85 1.6 NE 9 13 5 7 1013.9 1013.8 0.8
15/11:30am 19.5 20.0 16.5 83 1.8 ENE 9 11 5 6 1014.0 1013.9 0.8
15/11:00am 19.5 20.1 16.7 84 1.7 ENE 9 11 5 6 1014.0 1013.9 0.8
15/10:30am 19.4 20.0 16.8 85 1.6 NNE 9 11 5 6 1014.0 1013.9 0.8
15/10:00am 19.2 20.3 17.2 88 1.2 NE 7 11 4 6 1014.3 1014.2 0.8
15/09:39am 18.8 19.4 16.8 88 1.2 NE 9 11 5 6 1014.5 1014.4 0.8
15/09:30am 18.9 20.0 17.0 89 1.1 NE 7 9 4 5 1014.6 1014.5 0.8
15/09:26am 18.7 19.7 16.9 89 1.1 NNE 7 11 4 6 1014.7 1014.6 0.8
15/09:03am 18.7 19.3 16.9 89 1.1 NNE 9 11 5 6 1015.0 1014.9 0.2
15/09:00am 18.6 19.2 16.8 89 1.1 NNE 9 11 5 6 1015.0 1014.9 10.4
15/08:51am 18.7 18.9 16.7 88 1.2 NE 11 15 6 8 1015.0 1014.9 10.4
15/08:30am 18.7 19.7 16.9 89 1.1 ENE 7 11 4 6 1014.9 1014.8 10.0
15/08:28am 18.8 19.8 16.9 89 1.1 NE 7 11 4 6 1014.9 1014.8 10.0
15/08:00am 18.7 19.7 16.9 89 1.1 ESE 7 11 4 6 1014.5 1014.4 9.6
15/07:38am 18.6 20.5 16.8 89 1.1 ESE 2 7 1 4 1014.5 1014.4 9.4
15/07:30am 18.5 19.6 16.7 89 1.1 SE 6 11 3 6 1014.4 1014.3 9.4
15/07:11am 18.4 19.3 16.6 89 1.1 E 7 9 4 5 1014.2 1014.1 9.2
15/07:00am 18.3 19.2 16.6 90 1.0 SE 7 9 4 5 1014.5 1014.4 9.0
15/06:34am 18.2 19.1 16.5 90 1.0 SE 7 13 4 7 1014.0 1013.9 9.0
15/06:30am 18.1 18.5 16.4 90 1.0 SE 9 13 5 7 1013.8 1013.7 9.0
15/06:09am 18.2 19.3 16.7 91 0.9 S 6 9 3 5 1013.8 1013.7 8.2
15/06:00am 18.2 19.3 16.7 91 0.9 S 6 9 3 5 1013.5 1013.4 7.8
15/05:52am 18.2 18.8 16.7 91 0.9 SE 9 15 5 8 1013.6 1013.5 7.8
15/05:36am 18.1 20.4 16.8 92 0.8 CALM 0 0 0 0 1013.3 1013.2 7.6
15/05:30am 18.1 20.0 16.6 91 0.9 S 2 7 1 4 1013.2 1013.1 7.4
15/05:28am 18.1 20.0 16.6 91 0.9 SSE 2 9 1 5 1013.1 1013.0 7.4
15/05:05am 18.1 18.6 16.6 91 0.9 SSE 9 11 5 6 1012.6 1012.5 6.8
15/05:00am 18.1 19.0 16.6 91 0.9 SSE 7 11 4 6 1012.6 1012.5 6.4
15/04:49am 18.2 19.1 16.7 91 0.9 SSE 7 13 4 7 1012.6 1012.5 5.6
15/04:47am 18.3 19.3 16.8 91 0.9 SSE 7 13 4 7 1012.7 1012.6 5.4
15/04:30am 18.3 18.9 16.8 91 0.9 SSW 9 15 5 8 1012.8 1012.7 5.0
15/04:04am 18.4 17.9 16.9 91 0.9 SSE 15 20 8 11 1011.8 1011.7 5.0
15/04:00am 18.4 18.4 17.1 92 0.8 SSE 13 19 7 10 1011.4 1011.3 4.8
15/03:53am 18.4 18.7 16.9 91 0.9 SSE 11 17 6 9 1011.9 1011.8 4.8
15/03:43am 18.5 18.4 17.0 91 0.9 SSE 13 20 7 11 1012.0 1011.9 4.4
15/03:30am 18.7 18.7 17.2 91 0.9 SSE 13 17 7 9 1012.2 1012.1 3.4
15/03:27am 18.7 19.0 17.0 90 1.0 SE 11 17 6 9 1012.3 1012.2 3.2
15/03:19am 18.6 19.2 16.9 90 1.0 SE 9 15 5 8 1012.1 1012.0 2.8
15/03:05am 18.7 19.4 17.0 90 1.0 SSE 9 13 5 7 1012.5 1012.4 2.6
15/03:00am 18.8 19.5 17.1 90 1.0 S 9 13 5 7 1012.7 1012.6 2.4
15/02:58am 18.9 19.7 17.2 90 1.0 S 9 15 5 8 1012.8 1012.7 2.2
15/02:46am 18.9 20.0 17.0 89 1.1 SSW 7 11 4 6 1012.8 1012.7 2.2
15/02:30am 19.0 19.7 17.1 89 1.2 SSW 9 15 5 8 1013.0 1012.9 1.8
15/02:00am 19.4 19.2 16.8 85 1.6 S 13 19 7 10 1012.6 1012.5 1.2
15/01:30am 19.5 19.3 16.7 84 1.7 SSE 13 19 7 10 1012.7 1012.6 1.2
15/01:00am 19.6 19.5 17.0 85 1.6 SSE 13 19 7 10 1012.7 1012.6 1.0
15/12:30am 20.0 19.5 16.8 82 1.9 SSE 15 20 8 11 1012.6 1012.5 1.0
15/12:00am 20.1 19.7 17.1 83 1.8 SSE 15 20 8 11 1012.2 1012.1 1.0
 
Date/Time
EDT
Temp
°C
App
Temp
°C
Dew
Point
°C
Rel
Hum
%
Delta-T
°C
Wind Press
QNH
hPa
Press
MSL
hPa
Rain since
9am
mm
Dir  Spd
km/h
Gust
km/h
Spd
kts
Gust
kts
14/11:30pm 20.1 19.6 16.9 82 1.9 S 15 20 8 11 1012.3 1012.2 1.0
14/11:00pm 20.2 19.7 17.0 82 1.9 SSE 15 22 8 12 1012.1 1012.0 1.0
14/10:30pm 20.2 19.4 17.0 82 1.9 S 17 26 9 14 1011.9 1011.8 1.0
14/10:00pm 20.3 19.7 17.5 84 1.7 S 17 30 9 16 1011.1 1011.0 1.0
14/09:30pm 20.4 19.9 17.8 85 1.6 S 17 26 9 14 1010.4 1010.3 1.0
14/09:00pm 20.5 19.7 17.9 85 1.6 S 19 30 10 16 1009.5 1009.4 1.0
14/08:30pm 20.6 20.4 18.4 87 1.4 SSW 17 30 9 16 1008.9 1008.8 1.0
14/08:00pm 20.6 20.5 18.7 89 1.2 SSW 17 26 9 14 1008.1 1008.0 1.0
14/07:34pm 20.7 20.1 18.8 89 1.2 S 20 32 11 17 1008.3 1008.2 1.0
14/07:30pm 20.7 20.1 18.8 89 1.2 S 20 32 11 17 1008.4 1008.3 1.0
14/07:03pm 21.2 17.6 18.6 85 1.6 SSE 35 48 19 26 1007.3 1007.2 0.2
14/07:00pm 21.7 18.0 18.3 81 2.1 SSE 35 48 19 26 1007.0 1006.9 0.0
14/06:42pm 23.3 22.4 19.0 77 2.7 SE 22 56 12 30 1005.5 1005.4 0.0
14/06:38pm 23.0 25.1 19.4 80 2.3 E 7 43 4 23 1005.3 1005.2 0.0
14/06:30pm 23.0 26.4 19.4 80 2.3 CALM 0 6 0 3 1004.4 1004.3 0.0
14/06:00pm 23.1 24.3 19.1 78 2.5 NE 11 15 6 8 1003.9 1003.8 0.0
14/05:30pm 23.9 24.6 18.8 73 3.2 NNE 13 20 7 11 1003.4 1003.3 0.0
14/05:00pm 23.8 23.8 18.9 74 3.1 NNE 17 20 9 11 1003.5 1003.4 0.0
14/04:30pm 24.3 24.2 18.7 71 3.6 NE 17 20 9 11 1003.5 1003.4 0.0
14/04:07pm 27.0 27.3 16.0 51 6.8 NNE 9 19 5 10 1003.5 1003.4 0.0
14/04:00pm 33.3 33.4 13.9 31 11.9 N 6 11 3 6 1003.4 1003.3 0.0
14/03:57pm 33.5 33.5 12.5 28 12.5 N 4 11 2 6 1003.4 1003.3 0.0
14/03:30pm 33.9 33.3 12.3 27 12.9 N 7 13 4 7 1003.4 1003.3 0.0
14/03:00pm 34.6 32.5 11.1 24 13.8 NNW 13 20 7 11 1003.6 1003.5 0.0
14/02:30pm 34.9 31.5 10.7 23 14.1 NNW 19 35 10 19 1003.6 1003.5 0.0
14/02:00pm 35.4 32.5 11.1 23 14.4 NNW 17 28 9 15 1003.5 1003.4 0.0
14/01:30pm 35.0 32.6 11.4 24 13.9 N 15 30 8 16 1003.5 1003.4 0.0
14/01:00pm 34.6 31.9 11.7 25 13.6 N 17 35 9 19 1003.8 1003.7 0.0
14/12:30pm 34.7 32.2 11.2 24 13.8 NNW 15 28 8 15 1004.1 1004.0 0.0
14/12:00pm 34.8 31.4 11.2 24 13.9 NNW 20 39 11 21 1004.2 1004.1 0.0
14/11:30am 35.2 30.8 10.3 22 14.5 NNW 24 46 13 25 1004.1 1004.0 0.0
14/11:00am 36.0 30.2 10.9 22 14.8 NW 32 54 17 29 1004.0 1003.9 0.0
14/10:32am 34.4 29.4 10.9 24 13.7 NW 28 48 15 26 1004.1 1004.0 0.0
14/10:30am 34.2 29.5 10.7 24 13.7 WNW 26 46 14 25 1004.2 1004.1 0.0
14/10:00am 34.0 28.9 10.6 24 13.6 NW 28 48 15 26 1004.2 1004.1 0.0
14/09:56am 34.1 29.0 10.7 24 13.6 NW 28 48 15 26 1004.3 1004.2 0.0
14/09:30am 32.6 29.2 11.2 27 12.5 NW 20 37 11 20 1004.7 1004.6 0.0
14/09:08am 30.0 28.8 14.1 37 9.6 NNW 13 28 7 15 1004.9 1004.8 0.0
14/09:00am 24.5 26.2 19.3 73 3.3 NE 9 11 5 6 1005.0 1004.9 0.0
14/08:30am 23.7 25.3 19.2 76 2.9 NE 9 13 5 7 1005.3 1005.2 0.0
14/08:00am 23.3 24.4 18.8 76 2.9 NE 11 17 6 9 1005.1 1005.0 0.0
14/07:30am 21.3 23.5 18.3 83 1.9 N 4 9 2 5 1005.3 1005.2 0.0
14/07:26am 21.1 23.7 18.5 85 1.6 NNE 2 7 1 4 1005.2 1005.1 0.0
14/07:00am 19.5 22.5 18.5 94 0.6 CALM 0 0 0 0 1005.3 1005.2 0.0
14/06:48am 19.2 22.2 18.4 95 0.5 CALM 0 0 0 0 1005.3 1005.2 0.0
14/06:42am 18.7 21.5 17.9 95 0.5 CALM 0 0 0 0 1005.3 1005.2 0.0
14/06:30am 18.0 20.5 17.2 95 0.5 CALM 0 0 0 0 1005.3 1005.2 0.0
14/06:00am 16.3 18.1 15.5 95 0.5 CALM 0 0 0 0 1005.3 1005.2 0.0
14/05:30am 16.9 18.9 16.1 95 0.5 CALM 0 0 0 0 1005.2 1005.1 0.0
14/05:00am 16.9 18.9 16.1 95 0.5 CALM 0 6 0 3 1005.2 1005.1 0.0
14/04:30am 16.9 18.9 15.9 94 0.6 CALM 0 0 0 0 1005.0 1004.9 0.0
14/04:00am 17.9 18.6 17.1 95 0.5 N 9 11 5 6 1005.2 1005.1 0.0
14/03:30am 17.7 18.7 16.9 95 0.5 N 7 9 4 5 1005.6 1005.5 0.0
14/03:00am 17.4 18.5 16.6 95 0.5 N 6 9 3 5 1005.8 1005.7 0.0
14/02:55am 18.0 19.3 17.2 95 0.5 N 6 7 3 4 1005.9 1005.8 0.0
14/02:52am 18.2 19.6 17.4 95 0.5 N 6 9 3 5 1005.9 1005.8 0.0
14/02:30am 17.5 18.4 16.7 95 0.5 N 7 11 4 6 1005.8 1005.7 0.0
14/02:00am 17.7 18.9 16.9 95 0.5 N 6 7 3 4 1006.5 1006.4 0.0
14/01:30am 17.6 18.7 16.6 94 0.6 WNW 6 9 3 5 1007.4 1007.3 0.0
14/01:00am 18.2 19.3 17.2 94 0.6 NW 7 9 4 5 1007.8 1007.7 0.0
14/12:30am 18.5 20.0 17.5 94 0.6 WNW 6 7 3 4 1008.0 1007.9 0.0
14/12:00am 18.3 19.6 17.1 93 0.7 WNW 6 7 3 4 1008.6 1008.5 0.0
 
Date/Time
EDT
Temp
°C
App
Temp
°C
Dew
Point
°C
Rel
Hum
%
Delta-T
°C
Wind Press
QNH
hPa
Press
MSL
hPa
Rain since
9am
mm
Dir  Spd
km/h
Gust
km/h
Spd
kts
Gust
kts
13/11:45pm 19.1 20.8 18.1 94 0.6 WSW 6 9 3 5 1008.5 1008.4 0.0
13/11:30pm 19.3 21.1 18.3 94 0.6 W 6 13 3 7 1008.7 1008.6 0.0
13/11:24pm 19.1 20.6 18.1 94 0.6 WSW 7 13 4 7 1008.7 1008.6 0.0
13/11:00pm 19.4 20.7 18.4 94 0.6 W 9 13 5 7 1008.8 1008.7 0.0
13/10:48pm 19.3 20.4 18.1 93 0.7 WSW 9 9 5 5 1008.6 1008.5 0.0
13/10:45pm 19.3 20.4 18.1 93 0.7 WSW 9 9 5 5 1008.7 1008.6 0.0
13/10:30pm 18.9 20.2 17.6 92 0.8 WSW 7 9 4 5 1008.8 1008.7 0.0
13/10:00pm 19.3 20.9 17.8 91 0.9 ENE 6 7 3 4 1008.9 1008.8 0.0
13/09:53pm 19.4 21.0 17.9 91 0.9 ENE 6 6 3 3 1009.0 1008.9 0.0
13/09:30pm 20.1 23.0 18.1 88 1.2 CALM 0 2 0 1 1009.1 1009.0 0.0
13/09:00pm 21.2 22.4 19.1 88 1.3 NE 11 17 6 9 1009.0 1008.9 0.0
13/08:30pm 21.4 22.6 19.1 87 1.5 NE 11 17 6 9 1008.8 1008.7 0.0
13/08:00pm 21.7 22.2 19.3 86 1.5 NE 15 20 8 11 1008.9 1008.8 0.0

Latest Capital City Observations: Canberra | Sydney | Melbourne | Brisbane | Adelaide | Perth | Hobart | Darwin

Other Formats:

Comma delimited format used in spreadsheet applications
http://www.bom.gov.au/fwo/IDN60903/IDN60903.95937.axf

JavaScript Object Notation format (JSON) in row-major order
http://www.bom.gov.au/fwo/IDN60903/IDN60903.95937.json